createdAt,value
2018-04-01T00:02:27.640Z,2.53
2018-04-01T00:04:55.260Z,2.63
2018-04-01T00:07:22.967Z,2.97
2018-04-01T00:09:50.899Z,1.80
2018-04-01T00:12:18.522Z,2.57
2018-04-01T00:14:47.320Z,2.30
2018-04-01T00:17:16.012Z,2.37
2018-04-01T00:19:44.447Z,2.93
2018-04-01T00:22:12.160Z,1.93
2018-04-01T00:24:40.071Z,3.70
2018-04-01T00:27:07.703Z,2.87
2018-04-01T00:29:35.340Z,2.43
2018-04-01T00:32:04.036Z,2.30
2018-04-01T00:34:32.460Z,3.80
2018-04-01T00:37:00.133Z,2.77
2018-04-01T00:39:28.043Z,3.13
2018-04-01T00:41:56.430Z,3.50
2018-04-01T00:44:24.075Z,2.97
2018-04-01T00:46:52.732Z,3.03
2018-04-01T00:49:20.382Z,2.70
2018-04-01T00:51:48.038Z,3.87
2018-04-01T00:54:15.968Z,4.33
2018-04-01T00:56:43.596Z,2.20
2018-04-01T00:59:11.211Z,2.87
2018-04-01T01:01:39.122Z,3.57
2018-04-01T01:04:06.759Z,3.83
2018-04-01T01:06:34.413Z,4.80
2018-04-01T01:09:04.178Z,2.90
2018-04-01T01:11:31.798Z,4.60
2018-04-01T01:13:59.499Z,3.20
2018-04-01T01:16:28.211Z,4.00
2018-04-01T01:18:55.826Z,2.80
2018-04-01T01:21:24.311Z,2.93
2018-04-01T01:23:53.043Z,3.30
2018-04-01T01:26:20.668Z,3.60
2018-04-01T01:28:49.152Z,3.20
2018-04-01T01:31:17.847Z,3.40
2018-04-01T01:33:45.447Z,3.20
2018-04-01T01:36:13.122Z,3.43
2018-04-01T01:38:41.017Z,3.70
2018-04-01T01:41:09.399Z,3.40
2018-04-01T01:43:37.799Z,3.77
2018-04-01T01:46:05.679Z,3.30
2018-04-01T01:48:33.288Z,4.10
2018-04-01T01:51:01.711Z,5.10
2018-04-01T01:53:29.605Z,4.17
2018-04-01T01:55:57.271Z,4.60
2018-04-01T01:58:25.000Z,4.13
2018-04-01T02:00:52.943Z,4.97
2018-04-01T02:03:21.309Z,4.83
2018-04-01T02:05:49.687Z,5.17
2018-04-01T02:08:18.342Z,4.97
2018-04-01T02:10:45.987Z,5.90
2018-04-01T02:13:13.646Z,6.60
2018-04-01T02:15:41.580Z,5.33
2018-04-01T02:18:09.963Z,5.87
2018-04-01T02:20:37.566Z,5.80
2018-04-01T02:23:05.424Z,6.70
2018-04-01T02:25:33.055Z,6.80
2018-04-01T02:28:00.689Z,5.77
2018-04-01T02:30:29.396Z,5.57
2018-04-01T02:32:57.048Z,8.23
2018-04-01T02:35:25.569Z,6.30
2018-04-01T02:37:53.528Z,6.10
2018-04-01T02:40:21.152Z,6.50
2018-04-01T02:42:49.848Z,5.60
2018-04-01T02:45:18.536Z,6.20
2018-04-01T02:47:46.204Z,6.07
2018-04-01T02:50:13.804Z,7.57
2018-04-01T02:52:41.699Z,5.37
2018-04-01T02:55:09.355Z,6.17
2018-04-01T02:57:37.800Z,7.87
2018-04-01T03:00:05.748Z,7.47
2018-04-01T03:02:33.381Z,6.77
2018-04-01T03:05:01.788Z,6.00
2018-04-01T03:07:29.747Z,6.90
2018-04-01T03:09:58.186Z,5.83
2018-04-01T03:12:26.198Z,7.40
2018-04-01T03:14:54.155Z,6.03
2018-04-01T03:17:21.755Z,6.07
2018-04-01T03:19:49.461Z,6.70
2018-04-01T03:22:18.239Z,6.00
2018-04-01T03:24:45.902Z,7.63
2018-04-01T03:27:13.478Z,7.23
2018-04-01T03:29:42.171Z,6.83
2018-04-01T03:32:09.800Z,6.63
2018-04-01T03:34:37.460Z,6.97
2018-04-01T03:37:05.353Z,6.10
2018-04-01T03:39:33.747Z,7.77
2018-04-01T03:42:01.368Z,7.17
2018-04-01T03:44:29.259Z,7.30
2018-04-01T03:46:56.872Z,7.43
2018-04-01T03:49:24.530Z,7.07
2018-04-01T03:54:46.709Z,7.37
2018-04-01T03:57:14.280Z,7.47
2018-04-01T03:59:41.932Z,8.57
2018-04-01T04:02:09.793Z,7.07
2018-04-01T04:04:37.432Z,9.13
2018-04-01T04:07:05.108Z,7.77
2018-04-01T04:09:34.028Z,8.63
2018-04-01T04:12:02.362Z,9.00
2018-04-01T04:14:30.743Z,10.87
2018-04-01T04:16:58.633Z,8.53
2018-04-01T04:19:26.362Z,8.47
2018-04-01T04:21:54.757Z,9.57
2018-04-01T04:24:22.591Z,9.40
2018-04-01T04:26:50.553Z,9.10
2018-04-01T04:29:21.959Z,11.53
2018-04-01T04:31:49.975Z,8.97
2018-04-01T04:34:18.315Z,10.80
2018-04-01T04:36:46.684Z,11.07
2018-04-01T04:39:15.305Z,11.07
2018-04-01T04:41:42.893Z,10.57
2018-04-01T04:44:10.541Z,11.07
2018-04-01T04:46:38.600Z,10.90
2018-04-01T04:49:06.157Z,11.17
2018-04-01T04:51:33.712Z,10.30
2018-04-01T04:54:02.323Z,9.70
2018-04-01T04:56:29.963Z,10.43
2018-04-01T04:58:57.633Z,11.17
2018-04-01T05:01:25.632Z,10.23
2018-04-01T05:03:53.996Z,9.23
2018-04-01T05:06:21.578Z,8.13
2018-04-01T05:08:49.523Z,8.63
2018-04-01T05:11:17.868Z,8.43
2018-04-01T05:13:46.220Z,8.70
2018-04-01T05:16:14.859Z,10.00
2018-04-01T05:18:42.475Z,9.33
2018-04-01T05:21:19.396Z,7.57
2018-04-01T05:23:47.308Z,9.53
2018-04-01T05:26:14.890Z,8.43
2018-04-01T05:28:43.256Z,8.13
2018-04-01T05:31:11.885Z,8.63
2018-04-01T05:33:39.480Z,9.73
2018-04-01T05:36:07.982Z,9.37
2018-04-01T05:38:36.842Z,9.60
2018-04-01T05:41:04.454Z,8.60
2018-04-01T05:43:32.113Z,9.20
2018-04-01T05:46:01.064Z,9.23
2018-04-01T05:48:28.665Z,9.13
2018-04-01T05:50:56.254Z,8.73
2018-04-01T05:53:24.127Z,10.07
2018-04-01T05:55:51.766Z,7.97
2018-04-01T05:58:19.457Z,10.07
2018-04-01T06:00:47.301Z,11.47
2018-04-01T06:03:14.878Z,9.20
2018-04-01T06:05:42.532Z,8.77
2018-04-01T06:08:10.370Z,8.53
2018-04-01T06:10:37.931Z,9.77
2018-04-01T06:13:05.516Z,8.57
2018-04-01T06:15:33.351Z,10.93
2018-04-01T06:18:00.927Z,8.40
2018-04-01T06:20:28.575Z,9.67
2018-04-01T06:22:56.454Z,7.90
2018-04-01T06:25:24.017Z,7.57
2018-04-01T06:27:51.631Z,7.83
2018-04-01T06:30:20.270Z,7.70
2018-04-01T06:32:47.900Z,7.30
2018-04-01T06:35:15.480Z,8.03
2018-04-01T06:37:43.086Z,7.63
2018-04-01T06:40:10.782Z,7.97
2018-04-01T06:42:38.650Z,7.40
2018-04-01T06:45:06.249Z,6.53
2018-04-01T06:47:33.842Z,7.93
2018-04-01T06:50:02.559Z,8.03
2018-04-01T06:52:30.121Z,7.70
2018-04-01T06:54:57.732Z,7.67
2018-04-01T06:57:25.601Z,8.30
2018-04-01T06:59:53.156Z,8.17
2018-04-01T07:02:20.717Z,8.13
2018-04-01T07:04:49.358Z,7.87
2018-04-01T07:07:17.761Z,10.53
2018-04-01T07:09:45.378Z,7.83
2018-04-01T07:12:13.275Z,8.17
2018-04-01T07:14:40.846Z,7.33
2018-04-01T07:17:08.428Z,7.57
2018-04-01T07:19:36.426Z,8.70
2018-04-01T07:22:04.209Z,7.87
2018-04-01T07:24:31.829Z,10.60
2018-04-01T07:27:00.516Z,8.87
2018-04-01T07:29:28.883Z,9.10
2018-04-01T07:31:56.462Z,10.10
2018-04-01T07:34:24.832Z,9.40
2018-04-01T07:36:53.188Z,8.17
2018-04-01T07:39:20.777Z,8.80
2018-04-01T07:41:49.430Z,8.53
2018-04-01T07:44:17.028Z,8.73
2018-04-01T07:46:48.582Z,8.63
2018-04-01T07:49:17.277Z,8.00
2018-04-01T07:51:44.880Z,8.93
2018-04-01T07:54:12.487Z,7.60
2018-04-01T07:56:41.142Z,6.70
2018-04-01T07:59:08.705Z,8.93
2018-04-01T08:01:36.320Z,7.37
2018-04-01T08:04:04.233Z,8.40
2018-04-01T08:06:31.817Z,7.77
2018-04-01T08:09:00.154Z,9.90
2018-04-01T08:11:28.038Z,10.20
2018-04-01T08:13:55.604Z,10.70
2018-04-01T08:16:23.973Z,8.23
2018-04-01T08:18:51.907Z,10.10
2018-04-01T08:21:19.507Z,12.20
2018-04-01T08:23:47.950Z,11.00
2018-04-01T08:26:15.932Z,12.07
2018-04-01T08:28:43.856Z,13.77
2018-04-01T08:31:11.545Z,11.63
2018-04-01T08:33:39.466Z,13.47
2018-04-01T08:36:07.866Z,11.83
2018-04-01T08:38:35.517Z,14.23
2018-04-01T08:41:03.413Z,11.10
2018-04-01T08:43:31.004Z,12.30
2018-04-01T08:45:58.604Z,13.93
2018-04-01T08:48:26.571Z,15.33
2018-04-01T08:50:54.958Z,13.47
2018-04-01T08:53:22.596Z,11.10
2018-04-01T08:55:51.250Z,14.50
2018-04-01T08:58:18.827Z,9.23
2018-04-01T09:00:46.434Z,11.40
2018-04-01T09:03:14.351Z,10.53
2018-04-01T09:05:42.700Z,11.87
2018-04-01T09:08:10.330Z,10.80
2018-04-01T09:10:38.291Z,10.93
2018-04-01T09:13:05.942Z,12.40
2018-04-01T09:15:34.336Z,11.33
2018-04-01T09:18:02.225Z,11.90
2018-04-01T09:20:29.807Z,12.60
2018-04-01T09:22:57.401Z,13.87
2018-04-01T09:25:26.247Z,10.50
2018-04-01T09:27:53.936Z,12.03
2018-04-01T09:30:21.611Z,12.80
2018-04-01T09:32:50.277Z,14.47
2018-04-01T09:35:17.846Z,13.47
2018-04-01T09:37:46.257Z,12.83
2018-04-01T09:40:14.153Z,15.63
2018-04-01T09:42:41.725Z,15.80
2018-04-01T09:45:10.127Z,15.53
2018-04-01T09:47:38.905Z,15.77
2018-04-01T09:50:07.684Z,15.23
2018-04-01T09:52:42.203Z,13.07
2018-04-01T09:55:11.049Z,14.90
2018-04-01T09:57:38.734Z,13.77
2018-04-01T10:00:07.518Z,14.73
2018-04-01T10:02:38.430Z,13.93
2018-04-01T10:05:10.245Z,13.00
2018-04-01T10:07:39.591Z,16.87
2018-04-01T10:10:09.808Z,14.63
2018-04-01T10:12:39.363Z,16.07
2018-04-01T10:15:08.901Z,16.30
2018-04-01T10:17:38.664Z,16.40
2018-04-01T10:20:07.745Z,17.77
2018-04-01T10:22:39.120Z,19.17
2018-04-01T10:25:09.549Z,18.50
2018-04-01T10:27:40.016Z,14.03
2018-04-01T10:30:11.439Z,13.63
2018-04-01T10:32:44.949Z,16.83
2018-04-01T10:35:14.001Z,17.63
2018-04-01T10:37:43.004Z,17.37
2018-04-01T10:40:11.987Z,19.80
2018-04-01T10:46:31.653Z,15.17
2018-04-01T10:49:05.130Z,16.30
2018-04-01T10:51:42.615Z,11.77
2018-04-01T10:54:10.577Z,15.73
2018-04-01T10:56:38.166Z,15.67
2018-04-01T10:59:05.781Z,15.90
2018-04-01T11:01:33.715Z,14.97
2018-04-01T11:04:02.916Z,18.10
2018-04-01T11:06:32.806Z,14.13
2018-04-01T11:09:00.532Z,16.20
2018-04-01T11:11:28.732Z,17.07
2018-04-01T11:13:58.322Z,17.27
2018-04-01T11:16:26.731Z,20.17
2018-04-01T11:18:54.329Z,15.93
2018-04-01T11:21:22.191Z,17.47
2018-04-01T11:23:49.871Z,16.67
2018-04-01T11:26:18.360Z,16.13
2018-04-01T11:28:46.221Z,18.10
2018-04-01T11:31:14.725Z,16.90
2018-04-01T11:33:45.172Z,13.77
2018-04-01T11:36:13.322Z,9.00
2018-04-01T11:38:40.998Z,12.67
2018-04-01T11:41:09.383Z,12.53
2018-04-01T11:43:38.799Z,12.00
2018-04-01T11:46:06.481Z,16.40
2018-04-01T11:48:37.689Z,13.67
2018-04-01T11:51:06.389Z,11.63
2018-04-01T11:53:34.029Z,15.00
2018-04-01T11:56:03.609Z,13.67
2018-04-01T11:58:34.122Z,12.80
2018-04-01T12:04:03.769Z,13.50
2018-04-01T12:06:32.273Z,12.80
2018-04-01T12:09:00.759Z,13.53
2018-04-01T12:11:28.479Z,12.00
2018-04-01T12:13:56.145Z,12.20
2018-04-01T12:16:23.924Z,10.97
2018-04-01T12:18:52.337Z,9.17
2018-04-01T12:21:20.625Z,9.83
2018-04-01T12:23:50.757Z,11.03
2018-04-01T12:26:19.461Z,11.50
2018-04-01T12:28:47.061Z,9.10
2018-04-01T12:31:15.582Z,11.47
2018-04-01T12:33:44.073Z,17.93
2018-04-01T12:36:11.745Z,22.40
2018-04-01T12:38:39.470Z,19.57
2018-04-01T12:41:08.369Z,21.17
2018-04-01T12:43:36.979Z,25.07
2018-04-01T12:46:05.770Z,26.67
2018-04-01T12:48:34.544Z,28.13
2018-04-01T12:51:02.962Z,27.73
2018-04-01T12:53:31.586Z,32.47
2018-04-01T12:56:02.371Z,32.03
2018-04-01T12:58:31.058Z,27.57
2018-04-01T13:00:59.742Z,28.73
2018-04-01T13:03:30.261Z,32.27
2018-04-01T13:05:57.903Z,32.30
2018-04-01T13:08:26.529Z,30.47
2018-04-01T13:10:55.193Z,31.93
2018-04-01T13:13:22.836Z,32.03
2018-04-01T13:15:50.453Z,31.83
2018-04-01T13:18:19.145Z,30.30
2018-04-01T13:20:46.862Z,31.57
2018-04-01T13:23:14.488Z,36.93
2018-04-01T13:25:43.068Z,33.93
2018-04-01T13:28:10.718Z,32.97
2018-04-01T13:30:38.309Z,34.70
2018-04-01T13:33:06.153Z,37.50
2018-04-01T13:35:33.733Z,36.57
2018-04-01T13:38:01.366Z,33.93
2018-04-01T13:40:29.245Z,34.23
2018-04-01T13:42:56.901Z,31.13
2018-04-01T13:45:24.592Z,29.87
2018-04-01T13:47:52.503Z,31.90
2018-04-01T13:50:20.182Z,21.80
2018-04-01T13:52:47.775Z,27.10
2018-04-01T13:55:15.644Z,26.17
2018-04-01T13:57:43.395Z,22.87
2018-04-01T14:00:11.068Z,22.80
2018-04-01T14:02:38.980Z,24.63
2018-04-01T14:05:07.345Z,22.87
2018-04-01T14:07:35.750Z,22.30
2018-04-01T14:10:03.692Z,22.93
2018-04-01T14:12:32.070Z,24.93
2018-04-01T14:15:00.455Z,21.57
2018-04-01T14:17:29.124Z,21.57
2018-04-01T14:19:56.760Z,22.97
2018-04-01T14:22:24.418Z,21.50
2018-04-01T14:24:52.305Z,22.93
2018-04-01T14:27:20.192Z,23.57
2018-04-01T14:29:48.674Z,22.07
2018-04-01T14:32:17.446Z,25.13
2018-04-01T14:34:45.135Z,22.33
2018-04-01T14:37:13.562Z,21.63
2018-04-01T14:39:42.132Z,26.03
2018-04-01T14:42:11.462Z,24.17
2018-04-01T14:44:39.415Z,23.73
2018-04-01T14:47:07.064Z,24.03
2018-04-01T14:49:34.745Z,24.67
2018-04-01T14:52:02.754Z,25.77
2018-04-01T14:54:31.173Z,27.83
2018-04-01T14:56:58.820Z,25.13
2018-04-01T14:59:26.771Z,26.53
2018-04-01T15:01:55.179Z,28.10
2018-04-01T15:04:22.816Z,25.40
2018-04-01T15:06:51.432Z,30.20
2018-04-01T15:09:19.107Z,29.83
2018-04-01T15:11:46.812Z,28.93
2018-04-01T15:14:15.565Z,29.47
2018-04-01T15:16:43.113Z,30.73
2018-04-01T15:19:10.719Z,31.17
2018-04-01T15:21:38.989Z,31.43
2018-04-01T15:24:07.372Z,32.67
2018-04-01T15:26:35.817Z,31.93
2018-04-01T15:29:03.807Z,32.07
2018-04-01T15:31:32.250Z,31.80
2018-04-01T15:33:59.925Z,30.80
2018-04-01T15:36:27.887Z,34.43
2018-04-01T15:38:55.588Z,32.20
2018-04-01T15:41:24.090Z,34.37
2018-04-01T15:43:52.274Z,36.40
2018-04-01T15:46:19.986Z,29.40
2018-04-01T15:48:48.426Z,38.30
2018-04-01T15:51:16.348Z,37.90
2018-04-01T15:53:44.834Z,32.83
2018-04-01T15:56:12.421Z,33.43
2018-04-01T15:58:40.428Z,35.40
2018-04-01T16:01:08.043Z,29.07
2018-04-01T16:03:35.709Z,30.43
2018-04-01T16:06:03.619Z,32.90
2018-04-01T16:08:31.264Z,24.77
2018-04-01T16:10:59.348Z,21.37
2018-04-01T16:13:28.071Z,20.73
2018-04-01T16:15:58.167Z,20.17
2018-04-01T16:18:25.945Z,16.57
2018-04-01T16:20:54.980Z,12.40
2018-04-01T16:23:22.614Z,17.73
2018-04-01T16:25:51.267Z,18.20
2018-04-01T16:28:19.197Z,14.07
2018-04-01T16:30:46.861Z,16.87
2018-04-01T16:33:15.267Z,16.33
2018-04-01T16:35:46.270Z,17.23
2018-04-01T16:38:13.932Z,16.53
2018-04-01T16:40:41.627Z,15.40
2018-04-01T16:43:09.259Z,14.33
2018-04-01T16:45:36.893Z,16.70
2018-04-01T16:48:04.553Z,20.27
2018-04-01T16:50:32.502Z,19.40
2018-04-01T16:53:00.913Z,18.27
2018-04-01T16:55:29.301Z,16.90
2018-04-01T16:57:57.262Z,21.70
2018-04-01T17:00:24.927Z,18.17
2018-04-01T17:02:52.617Z,18.97
2018-04-01T17:05:20.535Z,23.87
2018-04-01T17:07:48.262Z,23.03
2018-04-01T17:10:15.906Z,25.40
2018-04-01T17:12:44.644Z,26.03
2018-04-01T17:15:13.101Z,24.77
2018-04-01T17:17:41.551Z,24.27
2018-04-01T17:20:09.540Z,31.23
2018-04-01T17:22:37.862Z,26.50
2018-04-01T17:25:05.678Z,30.00
2018-04-01T17:27:38.536Z,32.60
2018-04-01T17:30:06.692Z,33.73
2018-04-01T17:32:34.400Z,30.60
2018-04-01T17:35:02.348Z,31.90
2018-04-01T17:37:30.020Z,23.27
2018-04-01T17:39:58.040Z,28.87
2018-04-01T17:42:26.002Z,27.13
2018-04-01T17:44:54.443Z,30.87
2018-04-01T17:47:22.155Z,31.70
2018-04-01T17:49:50.219Z,32.13
2018-04-01T17:52:19.058Z,34.17
2018-04-01T17:54:47.076Z,37.63
2018-04-01T17:57:15.095Z,36.83
2018-04-01T17:59:43.750Z,38.93
2018-04-01T18:02:11.423Z,34.63
2018-04-01T18:04:39.381Z,37.90
2018-04-01T18:07:07.071Z,35.47
2018-04-01T18:09:34.976Z,36.03
2018-04-01T18:12:03.667Z,38.73
2018-04-01T18:14:31.304Z,41.00
2018-04-01T18:16:58.972Z,40.27
2018-04-01T18:19:26.853Z,42.23
2018-04-01T18:21:55.291Z,42.50
2018-04-01T18:24:22.973Z,41.40
2018-04-01T18:26:51.826Z,45.03
2018-04-01T18:29:19.495Z,47.50
2018-04-01T18:34:24.427Z,50.03
2018-04-01T18:36:52.430Z,48.93
2018-04-01T18:39:20.049Z,47.00
2018-04-01T18:41:48.350Z,50.17
2018-04-01T18:44:16.028Z,57.67
2018-04-01T18:46:43.670Z,70.13
2018-04-01T18:49:11.562Z,71.07
2018-04-01T18:51:39.146Z,72.00
2018-04-01T18:54:07.616Z,68.77
2018-04-01T18:56:36.312Z,82.60
2018-04-01T18:59:05.263Z,91.97
2018-04-01T19:01:33.796Z,98.43
2018-04-01T19:04:02.902Z,86.33
2018-04-01T19:06:30.496Z,105.43
2018-04-01T19:08:58.079Z,86.60
2018-04-01T19:11:25.736Z,90.83
2018-04-01T19:13:53.428Z,98.83
2018-04-01T19:16:23.528Z,102.73
2018-04-01T19:18:53.714Z,101.87
2018-04-01T19:21:23.623Z,100.37
2018-04-01T19:23:52.679Z,102.57
2018-04-01T19:26:21.713Z,95.87
2018-04-01T19:28:50.787Z,103.07
2018-04-01T19:31:20.117Z,104.57
2018-04-01T19:33:50.009Z,111.50
2018-04-01T19:36:19.086Z,113.23
2018-04-01T19:38:48.613Z,107.57
2018-04-01T19:41:18.754Z,105.87
2018-04-01T19:43:48.020Z,97.30
2018-04-01T19:46:18.620Z,100.47
2018-04-01T19:48:49.446Z,102.97
2018-04-01T19:51:18.587Z,107.57
2018-04-01T19:53:47.979Z,105.40
2018-04-01T19:56:16.994Z,109.13
2018-04-01T19:58:46.078Z,95.47
2018-04-01T20:01:15.433Z,102.37
2018-04-01T20:03:45.289Z,105.03
2018-04-01T20:06:16.963Z,93.93
2018-04-01T20:08:45.991Z,89.60
2018-04-01T20:22:00.028Z,82.90
2018-04-01T20:24:29.668Z,90.10
2018-04-01T20:46:29.757Z,84.23
2018-04-01T21:11:32.660Z,92.80
2018-04-01T21:20:55.824Z,103.77
2018-04-01T21:26:47.214Z,103.27
2018-04-01T21:36:14.865Z,110.13
2018-04-01T21:46:03.878Z,109.23
2018-04-01T21:49:11.727Z,113.77
2018-04-01T22:27:37.422Z,101.53
2018-04-01T22:37:13.734Z,107.47
2018-04-01T22:47:03.049Z,116.97
2018-04-01T23:22:57.804Z,110.47
2018-04-01T23:25:43.474Z,111.83
2018-04-01T23:28:16.805Z,116.53
2018-04-01T23:37:42.050Z,123.67
